Time;durP1;ratioP1;P1;durP2;ratioP2;P2;SDS_P1;SDS_P2;PMS_P1;PMS_P2;Temp;Humidity;BMP_temperature;BMP_pressure;BME280_temperature;BME280_humidity;BME280_pressure;Samples;Min_cycle;Max_cycle;Signal;HPM_P1;HPM_P2
2022/11/11 00:01:03;;;;;;;42.28;34.30;;;;;;;9.02;60.11;100689.00;5014653;28;20037;-83
2022/11/11 00:03:29;;;;;;;41.80;36.17;;;;;;;7.98;59.95;100506.22;5014605;28;20028;-81
2022/11/11 00:06:03;;;;;;;42.20;36.20;;;;;;;8.89;59.94;100646.28;5014583;28;20030;-82
2022/11/11 00:08:29;;;;;;;42.60;37.95;;;;;;;9.11;60.00;100679.44;5014488;28;20045;-81
2022/11/11 00:11:09;;;;;;;46.40;38.95;;;;;;;8.24;59.72;100550.41;5014610;28;20026;-81
2022/11/11 00:13:36;;;;;;;44.28;35.50;;;;;;;7.81;60.28;100495.56;5014440;28;20032;-82
2022/11/11 00:16:10;;;;;;;42.00;35.58;;;;;;;8.32;60.29;100587.41;5014340;28;20026;-82
2022/11/11 00:26:45;;;;;;;39.00;34.40;;;;;;;8.26;60.46;100599.31;5014543;28;20056;-81
2022/11/11 00:29:11;;;;;;;40.22;34.80;;;;;;;8.08;60.42;100576.41;5014227;28;20038;-82
2022/11/11 00:32:21;;;;;;;39.20;34.63;;;;;;;7.39;60.38;100472.09;5014145;28;20092;-81
2022/11/11 00:34:22;;;;;;;40.20;34.63;;;;;;;8.72;60.67;100679.41;5013856;28;20029;-82
2022/11/11 00:36:47;;;;;;;41.33;35.22;;;;;;;8.03;60.61;100550.53;5013957;28;20479;-82
2022/11/11 00:39:12;;;;;;;37.65;31.65;;;;;;;8.71;60.34;100643.53;5014187;28;20030;-82
2022/11/11 00:41:38;;;;;;;41.80;35.83;;;;;;;7.93;60.37;100518.13;5013595;28;20040;-81
2022/11/11 00:44:03;;;;;;;41.63;35.33;;;;;;;7.25;60.37;100472.47;5013882;28;20021;-82
2022/11/11 00:51:57;;;;;;;40.90;35.67;;;;;;;8.44;59.98;100601.28;5019532;28;20044;-81
2022/11/11 00:54:22;;;;;;;43.67;36.40;;;;;;;7.42;60.05;100449.97;5038033;28;20026;-81
2022/11/11 00:56:47;;;;;;;43.92;36.88;;;;;;;7.80;59.67;100459.72;5015021;28;20036;-82
2022/11/11 00:59:13;;;;;;;45.47;37.03;;;;;;;9.06;59.86;100657.94;5013979;28;20172;-83
2022/11/11 01:01:38;;;;;;;42.53;34.95;;;;;;;8.63;59.60;100588.09;5013831;28;20041;-81
2022/11/11 01:04:04;;;;;;;41.42;34.97;;;;;;;8.28;59.79;100534.22;5013512;28;20026;-82
2022/11/11 01:06:31;;;;;;;44.65;35.97;;;;;;;9.02;59.85;100651.28;5013516;28;20093;-81
2022/11/11 01:08:56;;;;;;;44.58;35.85;;;;;;;8.97;59.78;100664.88;5013543;28;20117;-82
2022/11/11 01:11:23;;;;;;;42.38;35.58;;;;;;;8.38;59.80;100586.88;5013465;28;20096;-82
2022/11/11 01:13:49;;;;;;;41.58;36.03;;;;;;;8.87;59.62;100658.75;5013220;28;20590;-81
2022/11/11 01:16:22;;;;;;;41.85;33.55;;;;;;;8.82;59.66;100653.91;5011939;28;20453;-83
2022/11/11 01:18:49;;;;;;;38.25;33.22;;;;;;;8.44;59.62;100599.47;5013279;28;20030;-81
2022/11/11 01:21:23;;;;;;;38.30;31.85;;;;;;;8.83;59.98;100649.47;5011899;28;20469;-82
2022/11/11 01:23:50;;;;;;;38.50;34.33;;;;;;;8.87;59.88;100653.50;5013218;28;20418;-82
2022/11/11 01:26:17;;;;;;;38.85;33.25;;;;;;;8.92;59.74;100656.56;5013211;28;20032;-82
2022/11/11 01:28:43;;;;;;;40.75;33.72;;;;;;;7.85;59.56;100489.88;5013041;28;20560;-82
2022/11/11 01:31:12;;;;;;;39.40;33.92;;;;;;;8.15;59.56;100546.78;5013046;28;20060;-82
2022/11/11 01:33:38;;;;;;;43.85;33.38;;;;;;;8.90;59.57;100645.31;5012926;28;20057;-81
2022/11/11 01:36:05;;;;;;;38.83;34.03;;;;;;;8.90;59.75;100654.03;5012953;28;20057;-82
2022/11/11 01:38:31;;;;;;;41.20;34.40;;;;;;;8.14;59.51;100546.94;5013003;28;20030;-83
2022/11/11 01:40:56;;;;;;;40.15;34.33;;;;;;;8.17;60.05;100547.47;5012898;28;20037;-82
2022/11/11 01:43:23;;;;;;;37.67;32.47;;;;;;;8.10;59.70;100542.91;5012811;28;20022;-81
2022/11/11 01:45:48;;;;;;;37.80;32.80;;;;;;;8.84;59.85;100649.34;5012762;28;20022;-81
2022/11/11 01:51:12;;;;;;;39.88;33.97;;;;;;;8.88;59.89;100653.34;5012914;28;20117;-82
2022/11/11 01:53:38;;;;;;;37.83;32.10;;;;;;;8.38;59.82;100573.72;5012076;28;20032;-81
2022/11/11 01:56:04;;;;;;;39.10;34.28;;;;;;;8.42;59.62;100567.22;5012551;28;20033;-81
2022/11/11 01:58:30;;;;;;;40.10;33.78;;;;;;;8.13;59.83;100527.69;5011411;28;20049;-81
2022/11/11 02:00:58;;;;;;;39.80;34.75;;;;;;;8.35;59.97;100558.22;5012838;28;20068;-82
2022/11/11 02:03:28;;;;;;;38.22;31.15;;;;;;;8.85;59.72;100661.53;5012792;28;20096;-82
2022/11/11 02:05:55;;;;;;;41.80;34.53;;;;;;;8.86;59.69;100655.31;5012351;28;20033;-83
2022/11/11 02:08:31;;;;;;;39.13;32.90;;;;;;;8.33;60.02;100578.56;5010985;28;20057;-82
2022/11/11 02:11:15;;;;;;;39.03;31.92;;;;;;;8.88;59.74;100649.91;5012486;28;20022;-81
2022/11/11 02:16:27;;;;;;;39.53;32.50;;;;;;;8.25;59.54;100552.09;5012506;28;20041;-81
2022/11/11 02:18:54;;;;;;;40.10;31.27;;;;;;;8.78;59.81;100657.81;5012051;28;20434;-83
2022/11/11 02:21:26;;;;;;;39.25;32.45;;;;;;;8.35;59.55;100573.16;5010825;28;20030;-81
2022/11/11 02:24:01;;;;;;;38.05;32.10;;;;;;;8.75;59.82;100644.91;5012374;28;20495;-82
2022/11/11 02:26:29;;;;;;;39.25;33.10;;;;;;;8.72;59.69;100647.00;5012077;28;20038;-82
2022/11/11 02:28:55;;;;;;;42.95;35.80;;;;;;;7.85;59.82;100518.81;5010641;28;20040;-81
2022/11/11 02:31:26;;;;;;;37.33;32.88;;;;;;;8.21;60.04;100598.88;5011962;28;20070;-81
2022/11/11 02:33:52;;;;;;;39.88;32.95;;;;;;;7.74;59.69;100507.59;5010449;28;20426;-81
2022/11/11 02:36:17;;;;;;;42.03;36.47;;;;;;;7.33;59.93;100464.75;5011772;28;20030;-82
2022/11/11 02:38:43;;;;;;;42.58;34.42;;;;;;;8.17;60.60;100613.25;5011911;28;20037;-83
2022/11/11 02:43:52;;;;;;;37.60;30.55;;;;;;;8.12;60.56;100612.00;5011624;28;20160;-83
2022/11/11 02:46:18;;;;;;;40.72;34.22;;;;;;;7.70;60.58;100543.00;5011553;28;20120;-81
2022/11/11 02:48:43;;;;;;;38.67;32.35;;;;;;;7.08;60.52;100444.22;5011854;28;20087;-82
2022/11/11 02:51:09;;;;;;;38.67;31.08;;;;;;;8.29;60.77;100633.22;5011465;28;20036;-81
2022/11/11 02:53:34;;;;;;;38.65;31.90;;;;;;;7.93;60.07;100597.00;5011648;28;20463;-82
2022/11/11 02:56:00;;;;;;;38.17;31.00;;;;;;;7.48;60.78;100513.34;5010320;28;20037;-81
2022/11/11 02:58:25;;;;;;;39.20;33.35;;;;;;;7.73;60.53;100533.03;5012005;28;20029;-82
2022/11/11 03:00:50;;;;;;;38.17;32.85;;;;;;;8.01;60.51;100589.28;5011998;28;20040;-83
2022/11/11 03:03:16;;;;;;;40.30;32.63;;;;;;;7.76;60.06;100555.59;5011511;28;20033;-81
2022/11/11 03:05:41;;;;;;;39.75;32.92;;;;;;;6.77;60.42;100372.53;5011433;28;20053;-83
2022/11/11 03:08:07;;;;;;;37.65;32.13;;;;;;;7.97;60.31;100574.72;5011445;28;20439;-81
2022/11/11 03:10:32;;;;;;;42.50;34.50;;;;;;;7.81;60.22;100548.97;5011618;28;20092;-83
2022/11/11 03:12:57;;;;;;;38.63;30.92;;;;;;;7.54;59.92;100504.09;5010179;28;20423;-81
2022/11/11 03:15:23;;;;;;;37.75;31.85;;;;;;;8.22;59.74;100618.97;5011559;28;20030;-82
2022/11/11 03:17:48;;;;;;;42.20;34.47;;;;;;;7.61;59.85;100527.06;5011394;28;20034;-81
2022/11/11 03:23:07;;;;;;;38.42;31.55;;;;;;;6.78;60.27;100414.41;5011751;28;20092;-82
2022/11/11 03:25:38;;;;;;;;;;;;;;;8.22;60.52;100666.31;5011911;28;20030;-81
2022/11/11 03:28:11;;;;;;;38.13;31.50;;;;;;;7.91;59.80;100612.91;5011558;28;19909;-83
2022/11/11 03:30:42;;;;;;;39.25;31.15;;;;;;;8.29;59.79;100670.06;5011342;28;20475;-82
2022/11/11 03:33:08;;;;;;;39.80;32.85;;;;;;;7.11;59.76;100483.34;5011258;28;20411;-81
2022/11/11 03:35:34;;;;;;;40.05;35.00;;;;;;;7.54;59.97;100559.28;5011140;28;20097;-83
2022/11/11 03:38:17;;;;;;;39.35;34.22;;;;;;;7.59;59.83;100547.41;5011416;28;20503;-81
2022/11/11 03:40:44;;;;;;;40.10;31.27;;;;;;;8.37;59.73;100673.84;5011291;28;20034;-83
2022/11/11 03:43:11;;;;;;;39.65;32.85;;;;;;;8.39;59.71;100658.75;5011251;28;20049;-81
2022/11/11 03:45:36;;;;;;;42.15;34.35;;;;;;;8.29;59.62;100640.28;5011243;28;20133;-82
2022/11/11 03:48:02;;;;;;;40.67;32.65;;;;;;;8.46;59.55;100657.25;5011020;28;20562;-83
2022/11/11 03:50:27;;;;;;;44.47;33.38;;;;;;;7.67;59.90;100530.13;5011054;28;20033;-82
2022/11/11 03:52:53;;;;;;;45.17;35.22;;;;;;;7.54;59.43;100509.34;5010979;28;20410;-82
2022/11/11 03:55:18;;;;;;;38.88;31.10;;;;;;;7.65;60.01;100533.72;5011174;28;20470;-82
2022/11/11 03:57:45;;;;;;;42.28;33.65;;;;;;;6.80;59.68;100383.59;5011051;28;20034;-82
2022/11/11 04:00:14;;;;;;;39.60;30.88;;;;;;;8.44;59.81;100654.75;5010835;28;20064;-82
2022/11/11 04:11:06;;;;;;;41.03;33.75;;;;;;;8.23;59.30;100660.09;5011395;28;20214;-81
2022/11/11 04:16:16;;;;;;;37.53;31.38;;;;;;;7.97;60.42;100636.03;5013331;28;20176;-82
2022/11/11 04:21:44;;;;;;;40.30;31.42;;;;;;;7.84;59.63;100611.78;5014195;28;20052;-81
2022/11/11 04:27:00;;;;;;;40.55;30.20;;;;;;;7.18;59.79;100498.44;5014645;28;20073;-81
2022/11/11 04:29:29;;;;;;;38.03;31.50;;;;;;;7.95;59.71;100668.72;5013085;28;20030;-81
2022/11/11 04:34:48;;;;;;;38.70;31.98;;;;;;;7.45;59.96;100547.78;5014006;28;20513;-81
2022/11/11 04:37:15;;;;;;;39.65;33.05;;;;;;;7.32;59.34;100540.09;5013991;28;20063;-83
2022/11/11 04:42:41;;;;;;;40.22;32.35;;;;;;;7.23;60.05;100530.38;4973006;28;20046;-83
2022/11/11 04:45:29;;;;;;;36.97;30.38;;;;;;;8.05;59.80;100668.72;5005215;28;20503;-81
2022/11/11 04:48:07;;;;;;;38.20;29.35;;;;;;;7.67;59.98;100601.91;5012644;28;20061;-83
2022/11/11 04:50:37;;;;;;;38.53;30.80;;;;;;;7.40;60.31;100556.97;5013875;28;20502;-82
2022/11/11 04:53:05;;;;;;;40.70;34.10;;;;;;;7.29;60.02;100529.84;5013483;28;20034;-83
2022/11/11 04:58:17;;;;;;;39.83;32.55;;;;;;;7.93;59.75;100652.22;5014080;28;20040;-82
2022/11/11 05:00:42;;;;;;;41.63;32.38;;;;;;;7.12;59.70;100519.13;5013692;28;20045;-83
2022/11/11 05:03:15;;;;;;;44.95;35.50;;;;;;;8.08;59.65;100692.13;5013518;28;20132;-82
2022/11/11 05:11:15;;;;;;;44.35;36.75;;;;;;;7.81;60.59;100655.94;5013378;28;20570;-82
2022/11/11 05:22:09;;;;;;;43.28;33.17;;;;;;;7.87;60.15;100685.16;5013436;28;20050;-82
2022/11/11 05:27:20;;;;;;;41.15;32.70;;;;;;;7.31;60.48;100585.72;5012525;28;20083;-82
2022/11/11 05:29:46;;;;;;;40.33;30.40;;;;;;;7.92;60.61;100742.59;5013032;28;20026;-82
2022/11/11 05:32:17;;;;;;;41.50;33.08;;;;;;;8.00;60.94;100718.28;5013034;28;20029;-82
2022/11/11 05:34:42;;;;;;;42.53;32.28;;;;;;;7.76;60.58;100710.69;5013016;28;20030;-83
2022/11/11 05:37:08;;;;;;;40.40;34.20;;;;;;;7.89;60.44;100693.72;5013041;28;20045;-82
2022/11/11 05:39:33;;;;;;;40.90;33.15;;;;;;;7.73;60.67;100663.66;5013031;28;20021;-84
2022/11/11 05:41:59;;;;;;;41.05;31.90;;;;;;;6.68;60.23;100479.94;5012929;28;20022;-82
2022/11/11 05:44:24;;;;;;;41.58;33.17;;;;;;;8.14;60.96;100713.47;5012770;28;20018;-83
2022/11/11 05:46:49;;;;;;;40.42;31.95;;;;;;;8.12;60.54;100701.41;5012815;28;20639;-82
2022/11/11 05:49:15;;;;;;;40.95;34.13;;;;;;;6.40;60.65;100483.22;5012651;28;20061;-83
2022/11/11 05:51:41;;;;;;;48.83;37.00;;;;;;;7.23;60.22;100547.94;5012569;28;20029;-82
2022/11/11 05:54:07;;;;;;;44.35;35.35;;;;;;;7.97;60.61;100658.88;5011374;28;20037;-82
2022/11/11 05:56:32;;;;;;;45.92;35.88;;;;;;;7.98;60.03;100647.41;5012615;28;20030;-83
2022/11/11 05:58:58;;;;;;;49.65;35.42;;;;;;;8.06;59.99;100663.34;5012488;28;20461;-82
2022/11/11 06:01:23;;;;;;;44.95;35.50;;;;;;;8.54;59.92;100733.72;5012429;28;20041;-83
2022/11/11 06:03:49;;;;;;;46.60;37.22;;;;;;;8.24;59.69;100684.59;5012467;28;20435;-82
2022/11/11 06:06:14;;;;;;;54.28;38.85;;;;;;;8.09;60.02;100644.66;5012467;28;20100;-83
2022/11/11 06:08:40;;;;;;;50.70;37.75;;;;;;;7.30;59.69;100547.28;5011906;28;20054;-82
2022/11/11 06:11:06;;;;;;;64.82;43.80;;;;;;;8.59;59.52;100719.19;5011754;28;20490;-82
2022/11/11 06:13:31;;;;;;;57.03;41.72;;;;;;;8.01;59.41;100623.47;5012222;28;20113;-83
2022/11/11 06:15:58;;;;;;;61.55;45.22;;;;;;;7.68;59.48;100565.97;5012271;28;20029;-82
2022/11/11 06:18:23;;;;;;;56.33;43.45;;;;;;;8.35;59.04;100670.53;5010444;28;20026;-82
2022/11/11 06:20:53;;;;;;;60.50;45.55;;;;;;;7.42;59.38;100524.34;5012125;28;20028;-84
2022/11/11 06:23:19;;;;;;;63.50;46.08;;;;;;;8.86;59.10;100758.00;5010831;28;20125;-84
2022/11/11 06:28:28;;;;;;;66.68;49.00;;;;;;;8.53;59.02;100685.50;5011387;28;20414;-83
2022/11/11 06:30:53;;;;;;;70.47;50.67;;;;;;;8.41;59.12;100652.38;5010663;28;20030;-84
2022/11/11 06:33:20;;;;;;;74.00;51.78;;;;;;;8.68;58.70;100696.47;5011642;28;20097;-82
2022/11/11 06:35:46;;;;;;;77.30;52.58;;;;;;;8.35;58.56;100623.16;5011806;28;20029;-83
2022/11/11 06:38:11;;;;;;;73.03;52.90;;;;;;;9.01;58.42;100726.03;5009714;28;20045;-83
2022/11/11 06:40:37;;;;;;;71.13;51.45;;;;;;;9.30;58.57;100779.53;5011166;28;20483;-82
2022/11/11 06:43:02;;;;;;;64.03;47.75;;;;;;;8.62;58.46;100675.94;5011009;28;20513;-83
2022/11/11 06:45:30;;;;;;;71.95;49.75;;;;;;;9.41;58.71;100768.00;5010894;28;20083;-82
2022/11/11 06:47:55;;;;;;;60.83;47.03;;;;;;;7.88;58.76;100513.28;5011110;28;20025;-84
2022/11/11 06:50:21;;;;;;;59.97;45.05;;;;;;;9.53;58.72;100774.78;5010532;28;20470;-83
2022/11/11 06:52:46;;;;;;;60.25;43.03;;;;;;;8.29;58.63;100577.97;5009312;28;20022;-83
2022/11/11 06:55:13;;;;;;;70.10;47.08;;;;;;;9.62;58.78;100778.41;5010525;28;20025;-83
2022/11/11 06:57:38;;;;;;;65.65;46.33;;;;;;;9.65;58.53;100767.56;5008644;28;20030;-83
2022/11/11 07:00:05;;;;;;;65.63;45.65;;;;;;;9.68;58.63;100765.50;5008081;28;20033;-83
2022/11/11 07:02:31;;;;;;;58.63;42.50;;;;;;;9.75;58.73;100768.41;5005662;28;20030;-82
2022/11/11 07:04:57;;;;;;;56.42;40.63;;;;;;;9.59;58.79;100733.84;5008957;28;20079;-83
2022/11/11 07:07:22;;;;;;;52.67;39.88;;;;;;;9.70;58.87;100745.09;5010902;28;20053;-83
2022/11/11 07:09:48;;;;;;;63.53;48.67;;;;;;;8.36;58.72;100527.47;5009949;28;20018;-82
2022/11/11 07:12:13;;;;;;;59.97;45.00;;;;;;;9.56;59.28;100721.78;5007101;28;20053;-83
2022/11/11 07:14:39;;;;;;;84.57;52.10;;;;;;;9.07;59.03;100628.81;5000836;28;20042;-80
2022/11/11 07:17:04;;;;;;;64.97;47.53;;;;;;;9.38;59.10;100673.41;5005509;28;20021;-84
2022/11/11 07:19:30;;;;;;;62.65;46.67;;;;;;;10.05;59.28;100773.44;5010373;28;20026;-82
2022/11/11 07:21:55;;;;;;;63.08;47.65;;;;;;;9.94;58.77;100747.25;5010590;28;20217;-82
2022/11/11 07:24:20;;;;;;;74.10;53.28;;;;;;;10.23;58.61;100777.97;5008751;28;20458;-82
2022/11/11 07:26:46;;;;;;;65.65;48.35;;;;;;;10.27;58.67;100774.06;5009845;28;20022;-81
2022/11/11 07:29:14;;;;;;;61.50;47.72;;;;;;;10.07;58.80;100729.28;5008981;28;20037;-83
2022/11/11 07:31:39;;;;;;;61.58;48.47;;;;;;;10.34;58.58;100765.44;5009753;28;20036;-81
2022/11/11 07:34:05;;;;;;;58.83;45.83;;;;;;;10.15;58.81;100721.44;5010324;28;20025;-82
2022/11/11 07:36:30;;;;;;;58.97;48.00;;;;;;;9.96;58.54;100687.25;5002845;28;20084;-83
2022/11/11 07:38:56;;;;;;;59.72;47.25;;;;;;;10.03;58.59;100677.75;5004001;28;20392;-81
2022/11/11 07:41:21;;;;;;;62.85;44.20;;;;;;;10.31;58.85;100749.88;5005768;28;20541;-84
2022/11/11 07:43:47;;;;;;;50.22;38.72;;;;;;;9.95;58.69;100650.47;5003625;28;20104;-82
2022/11/11 07:46:12;;;;;;;51.38;39.78;;;;;;;10.49;59.06;100713.00;4998516;28;20030;-83
2022/11/11 07:48:37;;;;;;;45.70;36.67;;;;;;;10.67;58.54;100727.03;5004604;28;20026;-82
2022/11/11 07:51:03;;;;;;;51.10;39.78;;;;;;;11.07;58.84;100760.13;5010552;28;20026;-83
2022/11/11 07:53:29;;;;;;;50.95;39.63;;;;;;;10.39;58.77;100631.19;5010637;28;20421;-82
2022/11/11 07:55:54;;;;;;;42.67;33.00;;;;;;;11.34;58.58;100783.84;5012797;28;20498;-83
2022/11/11 07:58:20;;;;;;;48.90;37.97;;;;;;;10.72;58.51;100658.75;5010386;28;20029;-84
2022/11/11 08:00:46;;;;;;;43.42;32.80;;;;;;;10.82;58.81;100656.03;5005800;28;20034;-83
2022/11/11 08:03:11;;;;;;;45.47;34.92;;;;;;;10.85;58.51;100637.22;4998763;28;20529;-83
2022/11/11 08:05:36;;;;;;;44.97;33.75;;;;;;;11.84;58.86;100775.31;5013876;28;20419;-82
2022/11/11 08:08:06;;;;;;;40.65;30.70;;;;;;;11.60;59.11;100709.81;5003533;28;20057;-83
2022/11/11 08:10:32;;;;;;;37.60;29.90;;;;;;;11.94;58.83;100740.81;4994895;28;20034;-82
2022/11/11 08:15:42;;;;;;;37.58;31.05;;;;;;;12.40;58.46;100758.91;4994914;28;20118;-82
2022/11/11 08:18:08;;;;;;;35.13;27.48;;;;;;;12.53;58.59;100770.84;5005187;28;20101;-81
2022/11/11 08:20:33;;;;;;;37.13;30.80;;;;;;;12.50;58.75;100742.03;5010118;28;20037;-82
2022/11/11 08:22:59;;;;;;;32.10;27.73;;;;;;;12.78;58.53;100772.63;5012788;28;20048;-82
2022/11/11 08:25:25;;;;;;;35.20;28.08;;;;;;;12.28;58.48;100730.22;5011386;28;20419;-82
2022/11/11 08:27:57;;;;;;;34.53;28.02;;;;;;;12.87;58.25;100753.09;5012894;28;20049;-82
2022/11/11 08:30:23;;;;;;;35.80;28.13;;;;;;;13.07;58.09;100779.28;5007635;28;20056;-82
2022/11/11 08:32:58;;;;;;;37.53;31.05;;;;;;;12.63;58.03;100695.56;5023147;28;20048;-82
2022/11/11 08:35:23;;;;;;;42.17;33.20;;;;;;;12.29;57.94;100624.13;5012436;28;20506;-82
2022/11/11 08:37:48;;;;;;;34.85;30.05;;;;;;;13.24;57.90;100794.25;5010622;28;20030;-82
2022/11/11 08:40:15;;;;;;;35.88;29.80;;;;;;;12.34;57.76;100655.41;5009150;28;20036;-81
2022/11/11 08:42:41;;;;;;;34.13;27.90;;;;;;;12.96;57.80;100715.00;5013741;28;20030;-82
2022/11/11 08:45:08;;;;;;;35.67;27.90;;;;;;;13.35;58.14;100800.06;5013720;28;20033;-81
2022/11/11 08:47:34;;;;;;;35.95;28.85;;;;;;;13.52;57.68;100786.81;5012410;28;20121;-82
2022/11/11 08:49:59;;;;;;;33.75;27.02;;;;;;;12.23;57.66;100563.06;5013592;28;20419;-82
2022/11/11 08:52:25;;;;;;;33.42;28.35;;;;;;;13.56;57.64;100770.41;5013727;28;20479;-81
2022/11/11 08:54:50;;;;;;;33.30;26.73;;;;;;;13.01;57.62;100664.94;5011718;28;20030;-83
2022/11/11 08:57:15;;;;;;;33.65;29.45;;;;;;;13.34;57.61;100718.81;4998622;28;20113;-82
2022/11/11 08:59:41;;;;;;;37.30;28.50;;;;;;;13.40;57.76;100737.75;5005326;28;20044;-82
2022/11/11 09:02:10;;;;;;;35.90;29.25;;;;;;;13.45;57.56;100743.38;5013165;28;20034;-82
2022/11/11 09:04:36;;;;;;;34.53;28.75;;;;;;;13.51;57.59;100748.03;5014008;28;20080;-82
2022/11/11 09:07:01;;;;;;;35.72;28.15;;;;;;;13.23;57.55;100711.22;5013850;28;20046;-82
2022/11/11 09:09:27;;;;;;;38.28;29.65;;;;;;;13.82;57.63;100785.31;5012372;28;20087;-82
2022/11/11 09:11:52;;;;;;;31.98;27.40;;;;;;;13.13;57.60;100659.31;5013667;28;20030;-82
2022/11/11 09:14:17;;;;;;;37.08;28.75;;;;;;;13.09;57.39;100647.38;5006456;28;20483;-82
2022/11/11 09:16:43;;;;;;;36.83;28.10;;;;;;;13.07;57.23;100671.41;5009606;28;20030;-83
2022/11/11 09:19:08;;;;;;;36.30;29.60;;;;;;;13.65;57.22;100712.84;5008719;28;20033;-83
2022/11/11 09:21:34;;;;;;;36.03;29.63;;;;;;;13.63;57.06;100698.91;5007491;28;20559;-82
2022/11/11 09:23:59;;;;;;;33.05;28.00;;;;;;;13.12;56.96;100629.31;5011239;28;20021;-82
2022/11/11 09:26:25;;;;;;;32.40;27.83;;;;;;;12.77;57.10;100558.13;5010868;28;20033;-81
2022/11/11 09:28:50;;;;;;;37.78;31.15;;;;;;;13.94;57.17;100783.94;5010466;28;20048;-82
2022/11/11 09:31:16;;;;;;;31.67;26.95;;;;;;;13.23;56.93;100636.94;5012548;28;20495;-81
2022/11/11 09:33:41;;;;;;;34.22;28.08;;;;;;;13.03;57.09;100596.69;5009618;28;20506;-82
2022/11/11 09:36:07;;;;;;;37.67;28.75;;;;;;;13.23;56.88;100613.09;5004830;28;20422;-83
2022/11/11 09:38:32;;;;;;;35.28;28.80;;;;;;;13.94;56.94;100744.13;4995334;28;20528;-82
2022/11/11 09:41:04;;;;;;;35.88;30.00;;;;;;;14.23;56.78;100775.44;5010569;28;20136;-82
2022/11/11 09:43:56;;;;;;;33.15;28.63;;;;;;;14.21;56.84;100767.63;4996695;28;20647;-82
2022/11/11 09:46:31;;;;;;;34.75;28.00;;;;;;;13.83;56.79;100705.50;4993361;28;20030;-82
2022/11/11 09:49:02;;;;;;;34.67;29.63;;;;;;;14.20;56.64;100752.69;5009504;28;20471;-82
2022/11/11 09:51:36;;;;;;;38.58;33.60;;;;;;;13.03;56.75;100569.34;5009556;28;20175;-82
2022/11/11 09:54:07;;;;;;;39.05;32.55;;;;;;;14.25;56.68;100760.97;5008539;28;20045;-82
2022/11/11 09:56:33;;;;;;;37.67;31.50;;;;;;;14.07;56.43;100730.31;5006585;28;20034;-81
2022/11/11 09:59:13;;;;;;;40.85;32.15;;;;;;;14.28;56.43;100762.44;5009964;28;20037;-82
2022/11/11 10:01:46;;;;;;;41.80;33.38;;;;;;;13.62;56.84;100662.75;5007603;28;20025;-81
2022/11/11 10:04:23;;;;;;;40.92;32.13;;;;;;;14.26;56.49;100757.31;5009553;28;20061;-81
2022/11/11 10:06:56;;;;;;;38.13;32.45;;;;;;;13.34;56.56;100619.84;5011659;28;20034;-81
2022/11/11 10:09:28;;;;;;;40.92;34.75;;;;;;;14.27;56.60;100763.47;5004466;28;20037;-81
2022/11/11 10:12:06;;;;;;;35.65;30.00;;;;;;;13.96;56.65;100727.03;5004937;28;20029;-82
2022/11/11 10:14:41;;;;;;;41.05;31.58;;;;;;;13.37;56.72;100614.22;5006192;28;20033;-82
2022/11/11 10:17:14;;;;;;;40.55;31.33;;;;;;;14.27;56.66;100750.16;4995545;28;20490;-82
2022/11/11 10:19:57;;;;;;;38.47;31.63;;;;;;;13.97;56.84;100698.63;5008613;28;20483;-82
2022/11/11 10:22:33;;;;;;;46.30;37.50;;;;;;;14.30;56.63;100745.34;5011462;28;20037;-83
2022/11/11 10:25:15;;;;;;;42.50;35.80;;;;;;;14.33;56.70;100744.16;5010753;28;20415;-83
2022/11/11 10:27:46;;;;;;;37.50;31.88;;;;;;;14.16;56.40;100719.50;5009610;28;20025;-82
2022/11/11 10:30:19;;;;;;;39.08;33.17;;;;;;;14.37;56.61;100755.28;5006919;28;20558;-83
2022/11/11 10:32:53;;;;;;;40.20;32.45;;;;;;;14.39;56.56;100742.66;5001614;28;20557;-81
2022/11/11 10:35:24;;;;;;;43.35;34.80;;;;;;;14.44;56.71;100748.31;4995495;28;20026;-82
2022/11/11 10:38:20;;;;;;;40.97;33.63;;;;;;;14.47;56.41;100750.59;5009695;28;20029;-82
2022/11/11 10:40:49;;;;;;;35.03;29.63;;;;;;;13.10;56.12;100525.25;5007640;28;20498;-82
2022/11/11 10:43:26;;;;;;;38.95;33.33;;;;;;;14.35;56.77;100736.03;5007967;28;20026;-82
2022/11/11 10:46:06;;;;;;;43.60;33.17;;;;;;;14.53;56.49;100739.28;5004085;28;20014;-81
2022/11/11 10:48:53;;;;;;;38.55;31.23;;;;;;;14.41;56.72;100730.00;4999961;28;20077;-82
2022/11/11 10:51:20;;;;;;;49.08;36.25;;;;;;;14.48;56.00;100741.63;5008294;28;20034;-83
2022/11/11 10:53:56;;;;;;;34.60;30.02;;;;;;;13.90;56.14;100623.34;5001658;28;20057;-83
2022/11/11 10:56:42;;;;;;;42.67;33.63;;;;;;;14.62;56.57;100735.56;5009267;28;20043;-82
2022/11/11 10:59:18;;;;;;;39.35;30.88;;;;;;;14.62;56.32;100735.56;4996069;28;20399;-81
2022/11/11 11:01:55;;;;;;;37.08;29.48;;;;;;;14.05;56.63;100636.69;5011896;28;20175;-83
2022/11/11 11:04:41;;;;;;;42.50;32.63;;;;;;;13.76;56.72;100616.91;4992372;28;20018;-83
2022/11/11 11:07:12;;;;;;;40.38;31.52;;;;;;;14.62;56.44;100743.56;5003155;28;20141;-83
2022/11/11 11:09:49;;;;;;;40.00;34.20;;;;;;;14.60;56.69;100743.72;4999535;28;20034;-83
2022/11/11 11:12:45;;;;;;;42.55;34.05;;;;;;;14.28;56.58;100672.97;5008889;28;20095;-82
2022/11/11 11:15:16;;;;;;;39.17;30.40;;;;;;;14.40;56.64;100697.31;5011438;28;20144;-82
2022/11/11 11:18:05;;;;;;;42.85;31.33;;;;;;;14.27;56.80;100697.03;5006966;28;20490;-82
2022/11/11 11:20:31;;;;;;;39.40;32.22;;;;;;;14.11;56.72;100671.34;4992403;28;20181;-83
2022/11/11 11:23:01;;;;;;;37.42;30.33;;;;;;;14.58;56.85;100724.47;4992968;28;20141;-83
2022/11/11 11:25:32;;;;;;;40.03;34.10;;;;;;;13.58;57.20;100566.75;5013521;28;20022;-83
2022/11/11 11:28:04;;;;;;;44.45;36.40;;;;;;;14.51;57.08;100731.50;5014805;28;20038;-81
2022/11/11 11:30:30;;;;;;;35.45;30.27;;;;;;;14.48;57.26;100723.03;5014280;28;20108;-83
2022/11/11 11:33:00;;;;;;;40.55;33.45;;;;;;;14.48;57.18;100768.22;5014784;28;20157;-83
2022/11/11 11:35:30;;;;;;;40.55;32.05;;;;;;;14.51;57.13;100730.66;5013158;28;20504;-82
2022/11/11 11:37:56;;;;;;;41.65;33.45;;;;;;;14.42;57.28;100711.28;5005401;28;20396;-82
2022/11/11 11:40:21;;;;;;;34.10;29.52;;;;;;;13.94;57.20;100627.28;5013891;28;20029;-82
2022/11/11 11:42:46;;;;;;;41.38;30.92;;;;;;;13.53;57.09;100562.94;5024801;28;20078;-81
2022/11/11 11:45:19;;;;;;;38.08;32.03;;;;;;;14.48;56.93;100752.25;5037730;28;20006;-81
2022/11/11 11:48:24;;;;;;;41.65;31.00;;;;;;;14.30;57.55;100686.91;5023115;28;20064;-82
2022/11/11 11:50:55;;;;;;;36.08;30.17;;;;;;;14.25;57.67;100691.91;5011662;28;20025;-82
2022/11/11 11:53:34;;;;;;;39.67;30.08;;;;;;;14.46;57.31;100711.75;4995619;28;20077;-82
2022/11/11 11:56:18;;;;;;;34.92;28.85;;;;;;;14.46;57.12;100709.09;4998883;28;20029;-82
2022/11/11 11:59:12;;;;;;;39.30;31.35;;;;;;;14.43;57.59;100718.25;5015173;28;20495;-83
2022/11/11 12:02:05;;;;;;;42.85;33.25;;;;;;;14.45;58.08;100713.59;5010517;28;20029;-82
2022/11/11 12:04:45;;;;;;;38.22;30.23;;;;;;;14.46;57.65;100717.91;4999997;28;20116;-82
2022/11/11 12:07:15;;;;;;;44.97;33.70;;;;;;;14.47;58.04;100716.88;5004821;28;20050;-82
2022/11/11 12:10:08;;;;;;;45.92;33.72;;;;;;;14.43;58.54;100710.28;5012854;28;20047;-80
2022/11/11 12:12:43;;;;;;;43.83;37.40;;;;;;;14.43;58.63;100725.38;5029446;28;20022;-81
2022/11/11 12:15:26;;;;;;;50.80;41.42;;;;;;;13.73;60.23;100611.13;5034117;28;20037;-81
2022/11/11 12:18:05;;;;;;;43.90;35.30;;;;;;;14.13;59.34;100711.88;5001979;28;20041;-82
2022/11/11 12:20:51;;;;;;;46.67;38.15;;;;;;;14.01;60.17;100678.72;4993635;28;20439;-82
2022/11/11 12:23:29;;;;;;;46.78;38.53;;;;;;;13.72;59.99;100634.19;4994477;28;20026;-82
2022/11/11 12:26:10;;;;;;;47.72;38.50;;;;;;;14.07;60.28;100693.13;5002051;28;20026;-81
2022/11/11 12:28:45;;;;;;;51.45;42.08;;;;;;;14.24;60.44;100730.09;5013267;28;20135;-82
2022/11/11 12:31:13;;;;;;;45.95;37.85;;;;;;;14.22;60.47;100734.75;5013650;28;20053;-83
2022/11/11 12:34:03;;;;;;;47.03;38.28;;;;;;;14.24;60.76;100737.22;5009793;28;20025;-82
2022/11/11 12:36:34;;;;;;;50.22;39.28;;;;;;;14.21;60.76;100743.72;5010072;28;20032;-82